createdAt,value
2018-03-19T00:00:52.353Z,-1.20
2018-03-19T00:05:26.130Z,-1.00
2018-03-19T00:09:59.444Z,-1.20
2018-03-19T00:14:32.709Z,-1.10
2018-03-19T00:19:06.638Z,-1.10
2018-03-19T00:23:40.938Z,-1.10
2018-03-19T00:28:14.354Z,-1.10
2018-03-19T00:32:47.610Z,-1.10
2018-03-19T00:37:21.637Z,-1.20
2018-03-19T00:41:55.675Z,-1.00
2018-03-19T00:46:29.173Z,-1.10
2018-03-19T00:51:02.499Z,-1.10
2018-03-19T00:55:36.730Z,-1.20
2018-03-19T01:00:10.797Z,-1.20
2018-03-19T01:04:44.069Z,-1.20
2018-03-19T01:09:17.406Z,-1.20
2018-03-19T01:13:51.511Z,-1.10
2018-03-19T01:18:24.833Z,-1.20
2018-03-19T01:22:58.107Z,-1.20
2018-03-19T01:27:32.713Z,-1.20
2018-03-19T01:32:06.222Z,-1.30
2018-03-19T01:36:39.492Z,-1.20
2018-03-19T01:41:12.809Z,-1.20
2018-03-19T01:45:46.135Z,-1.30
2018-03-19T01:50:19.750Z,-1.40
2018-03-19T01:54:53.118Z,-1.40
2018-03-19T01:59:27.256Z,-1.50
2018-03-19T02:04:01.410Z,-1.60
2018-03-19T02:08:35.257Z,-1.60
2018-03-19T02:13:08.719Z,-1.50
2018-03-19T02:17:42.130Z,-1.50
2018-03-19T02:22:16.364Z,-1.50
2018-03-19T02:26:50.409Z,-1.50
2018-03-19T02:31:24.064Z,-1.60
2018-03-19T02:35:58.133Z,-1.50
2018-03-19T02:40:32.236Z,-1.50
2018-03-19T02:45:07.105Z,-1.50
2018-03-19T02:49:41.233Z,-1.60
2018-03-19T02:54:15.596Z,-1.60
2018-03-19T02:58:48.881Z,-1.60
2018-03-19T03:03:22.162Z,-1.50
2018-03-19T03:07:56.118Z,-1.50
2018-03-19T03:12:29.351Z,-1.40
2018-03-19T03:17:02.655Z,-1.40
2018-03-19T03:21:35.958Z,-1.40
2018-03-19T03:26:09.483Z,-1.40
2018-03-19T03:30:42.858Z,-1.60
2018-03-19T03:35:16.174Z,-1.60
2018-03-19T03:39:49.500Z,-1.50
2018-03-19T03:44:22.786Z,-1.60
2018-03-19T03:48:56.914Z,-1.30
2018-03-19T03:53:31.194Z,-1.40
2018-03-19T03:58:04.606Z,-1.40
2018-03-19T04:02:38.685Z,-1.50
2018-03-19T04:07:12.722Z,-1.60
2018-03-19T04:11:46.526Z,-1.60
2018-03-19T04:16:20.782Z,-1.50
2018-03-19T04:20:54.105Z,-1.60
2018-03-19T04:25:27.401Z,-1.50
2018-03-19T04:30:00.726Z,-1.60
2018-03-19T04:34:34.216Z,-1.50
2018-03-19T04:39:07.476Z,-1.50
2018-03-19T04:43:41.331Z,-1.60
2018-03-19T04:52:54.918Z,-1.80
2018-03-19T04:57:28.229Z,-1.70
2018-03-19T05:02:02.274Z,-1.60
2018-03-19T05:06:36.114Z,-1.60
2018-03-19T05:11:09.601Z,-1.70
2018-03-19T05:15:42.902Z,-1.80
2018-03-19T05:20:16.933Z,-1.80
2018-03-19T05:24:50.320Z,-1.60
2018-03-19T05:29:24.386Z,-1.70
2018-03-19T05:33:57.704Z,-1.80
2018-03-19T05:38:30.978Z,-1.60
2018-03-19T05:43:05.206Z,-1.60
2018-03-19T05:47:39.909Z,-1.70
2018-03-19T05:52:13.194Z,-1.80
2018-03-19T05:56:46.598Z,-1.90
2018-03-19T06:01:19.832Z,-1.80
2018-03-19T06:05:53.234Z,-1.60
2018-03-19T06:10:26.516Z,-1.60
2018-03-19T06:15:00.551Z,-1.60
2018-03-19T06:19:34.064Z,-1.70
2018-03-19T06:24:07.358Z,-1.60
2018-03-19T06:28:40.673Z,-1.70
2018-03-19T06:33:14.192Z,-1.60
2018-03-19T06:37:47.827Z,-1.80
2018-03-19T06:42:21.193Z,-1.70
2018-03-19T06:46:55.289Z,-1.60
2018-03-19T06:51:28.766Z,-1.60
2018-03-19T06:56:02.278Z,-1.40
2018-03-19T07:00:35.587Z,-1.50
2018-03-19T07:05:09.224Z,-1.40
2018-03-19T07:09:42.606Z,-1.40
2018-03-19T07:14:15.998Z,-1.30
2018-03-19T07:18:49.515Z,-1.40
2018-03-19T07:23:23.024Z,-1.40
2018-03-19T07:27:57.799Z,-1.50
2018-03-19T07:32:31.070Z,-1.50
2018-03-19T07:37:05.588Z,-1.30
2018-03-19T07:41:39.050Z,-1.30
2018-03-19T07:46:13.152Z,-1.50
2018-03-19T07:50:47.954Z,-1.30
2018-03-19T07:55:21.310Z,-1.30
2018-03-19T07:59:55.393Z,-1.20
2018-03-19T08:04:28.773Z,-1.20
2018-03-19T08:09:02.057Z,-1.20
2018-03-19T08:13:36.211Z,-1.10
2018-03-19T08:18:11.276Z,-1.00
2018-03-19T08:22:44.676Z,-1.10
2018-03-19T08:27:18.049Z,-1.00
2018-03-19T08:31:52.106Z,-0.90
2018-03-19T08:36:25.570Z,-1.00
2018-03-19T08:40:58.864Z,-0.90
2018-03-19T08:45:33.156Z,-0.90
2018-03-19T08:50:06.546Z,-0.80
2018-03-19T08:54:40.619Z,-0.80
2018-03-19T08:59:13.867Z,-0.90
2018-03-19T09:03:48.549Z,-0.60
2018-03-19T09:08:21.966Z,-0.70
2018-03-19T09:12:55.357Z,-0.60
2018-03-19T09:17:28.752Z,-0.70
2018-03-19T09:22:02.932Z,-0.60
2018-03-19T09:26:36.336Z,-0.60
2018-03-19T09:31:09.779Z,-0.40
2018-03-19T09:35:43.152Z,-0.40
2018-03-19T09:40:16.634Z,-0.20
2018-03-19T09:44:51.628Z,-0.10
2018-03-19T09:49:25.037Z,-0.20
2018-03-19T09:53:58.349Z,0.00
2018-03-19T09:58:31.673Z,-0.10
2018-03-19T10:03:05.336Z,0.00
2018-03-19T10:07:39.372Z,0.10
2018-03-19T10:12:12.678Z,0.10
2018-03-19T10:16:46.077Z,0.50
2018-03-19T10:21:20.310Z,0.90
2018-03-19T10:25:54.341Z,0.90
2018-03-19T10:30:28.688Z,0.80
2018-03-19T10:35:02.677Z,1.00
2018-03-19T10:39:36.746Z,1.30
2018-03-19T10:44:10.057Z,1.30
2018-03-19T10:48:43.298Z,1.20
2018-03-19T10:53:17.396Z,1.30
2018-03-19T10:57:50.694Z,1.50
2018-03-19T11:07:39.002Z,1.90
2018-03-19T11:12:12.748Z,1.90
2018-03-19T11:16:46.417Z,2.10
2018-03-19T11:21:19.672Z,2.10
2018-03-19T11:25:53.058Z,2.30
2018-03-19T11:30:26.710Z,2.20
2018-03-19T11:35:00.271Z,2.50
2018-03-19T11:39:33.760Z,2.50
2018-03-19T11:44:08.460Z,5.10
2018-03-19T11:48:41.850Z,5.00
2018-03-19T11:53:15.165Z,6.40
2018-03-19T11:57:48.562Z,5.80
2018-03-19T12:02:21.872Z,5.50
2018-03-19T12:06:55.205Z,7.40
2018-03-19T12:11:29.048Z,8.60
2018-03-19T12:16:02.305Z,9.10
2018-03-19T12:20:35.623Z,9.90
2018-03-19T12:25:08.902Z,10.70
2018-03-19T12:29:43.043Z,8.90
2018-03-19T12:34:17.009Z,8.80
2018-03-19T12:38:50.269Z,9.50
2018-03-19T12:43:24.322Z,8.30
2018-03-19T12:47:57.705Z,8.20
2018-03-19T12:52:31.747Z,8.50
2018-03-19T12:57:05.062Z,8.50
2018-03-19T13:01:38.453Z,9.80
2018-03-19T13:06:12.696Z,9.00
2018-03-19T13:10:46.226Z,8.90
2018-03-19T13:15:19.608Z,10.10
2018-03-19T13:19:53.641Z,10.00
2018-03-19T13:24:28.000Z,10.10
2018-03-19T13:29:01.306Z,8.90
2018-03-19T13:33:34.572Z,8.20
2018-03-19T13:38:08.737Z,8.80
2018-03-19T13:42:42.001Z,8.80
2018-03-19T13:47:15.262Z,8.80
2018-03-19T13:51:48.521Z,9.00
2018-03-19T13:56:21.949Z,9.00
2018-03-19T14:00:55.968Z,9.10
2018-03-19T14:05:30.021Z,8.90
2018-03-19T14:10:03.417Z,8.90
2018-03-19T14:14:37.428Z,8.30
2018-03-19T14:19:10.856Z,8.20
2018-03-19T14:23:44.191Z,7.80
2018-03-19T14:28:17.570Z,7.30
2018-03-19T14:32:51.756Z,6.60
2018-03-19T14:37:25.047Z,6.50
2018-03-19T14:42:00.161Z,5.60
2018-03-19T14:46:33.497Z,5.60
2018-03-19T14:51:07.659Z,5.80
2018-03-19T14:55:41.115Z,6.10
2018-03-19T15:00:15.164Z,6.10
2018-03-19T15:04:48.547Z,6.10
2018-03-19T15:09:22.574Z,5.80
2018-03-19T15:13:56.604Z,5.40
2018-03-19T15:18:29.918Z,5.40
2018-03-19T15:23:04.138Z,4.30
2018-03-19T15:27:38.170Z,4.00
2018-03-19T15:32:12.208Z,3.90
2018-03-19T15:36:46.131Z,3.90
2018-03-19T15:41:19.445Z,3.80
2018-03-19T15:45:52.837Z,3.60
2018-03-19T15:50:27.066Z,3.80
2018-03-19T15:55:01.097Z,3.60
2018-03-19T15:59:35.223Z,3.80
2018-03-19T16:04:08.644Z,3.70
2018-03-19T16:08:41.914Z,3.60
2018-03-19T16:13:16.070Z,3.40
2018-03-19T16:17:50.230Z,3.30
2018-03-19T16:22:23.699Z,3.20
2018-03-19T16:26:58.277Z,2.90
2018-03-19T16:31:31.586Z,2.80
2018-03-19T16:36:05.075Z,2.90
2018-03-19T16:40:39.140Z,2.60
2018-03-19T16:45:12.386Z,2.50
2018-03-19T16:49:46.329Z,2.40
2018-03-19T16:54:20.381Z,2.10
2018-03-19T16:58:53.770Z,2.00
2018-03-19T17:03:27.814Z,1.80
2018-03-19T17:08:01.230Z,1.70
2018-03-19T17:12:34.472Z,1.80
2018-03-19T17:17:07.975Z,1.70
2018-03-19T17:21:42.109Z,1.60
2018-03-19T17:26:15.571Z,1.50
2018-03-19T17:30:49.700Z,1.60
2018-03-19T17:35:23.826Z,1.50
2018-03-19T17:39:57.853Z,1.40
2018-03-19T17:44:32.193Z,1.30
2018-03-19T17:49:05.627Z,1.30
2018-03-19T17:53:38.902Z,1.30
2018-03-19T17:58:13.033Z,1.20
2018-03-19T18:02:46.379Z,1.10
2018-03-19T18:07:19.721Z,1.30
2018-03-19T18:11:53.168Z,1.30
2018-03-19T18:16:27.532Z,1.40
2018-03-19T18:21:00.917Z,1.30
2018-03-19T18:25:34.322Z,1.40
2018-03-19T18:30:08.359Z,1.30
2018-03-19T18:34:41.990Z,1.30
2018-03-19T18:39:15.768Z,1.30
2018-03-19T18:43:49.196Z,1.40
2018-03-19T18:48:22.606Z,1.30
2018-03-19T18:52:56.737Z,1.30
2018-03-19T18:57:30.806Z,1.20
2018-03-19T19:02:04.170Z,1.20
2018-03-19T19:06:39.054Z,1.20
2018-03-19T19:11:12.560Z,1.10
2018-03-19T19:15:46.047Z,1.10
2018-03-19T19:20:20.176Z,1.00
2018-03-19T19:24:54.210Z,1.20
2018-03-19T19:29:27.508Z,1.10
2018-03-19T19:34:02.023Z,1.00
2018-03-19T19:38:35.707Z,1.00
2018-03-19T19:43:09.076Z,1.10
2018-03-19T19:47:43.068Z,1.10
2018-03-19T19:52:16.514Z,1.00
2018-03-19T19:56:50.743Z,1.00
2018-03-19T20:01:25.026Z,0.90
2018-03-19T20:05:58.635Z,0.80
2018-03-19T20:10:31.915Z,1.00
2018-03-19T20:15:05.177Z,1.00
2018-03-19T20:19:38.519Z,1.10
2018-03-19T20:24:12.568Z,1.00
2018-03-19T20:28:45.814Z,1.00
2018-03-19T20:33:19.667Z,1.00
2018-03-19T20:37:53.084Z,1.00
2018-03-19T20:42:27.078Z,0.90
2018-03-19T20:47:00.766Z,0.90
2018-03-19T20:51:34.038Z,1.00
2018-03-19T20:56:08.269Z,1.00
2018-03-19T21:00:42.324Z,0.90
2018-03-19T21:05:15.706Z,0.90
2018-03-19T21:09:49.762Z,0.90
2018-03-19T21:14:23.245Z,0.90
2018-03-19T21:18:57.475Z,0.70
2018-03-19T21:23:31.766Z,0.60
2018-03-19T21:28:05.547Z,0.50
2018-03-19T21:32:38.858Z,0.50
2018-03-19T21:37:12.391Z,0.50
2018-03-19T21:41:47.395Z,0.40
2018-03-19T21:46:21.440Z,0.30
2018-03-19T21:50:54.970Z,0.20
2018-03-19T21:55:28.286Z,0.30
2018-03-19T22:00:01.687Z,0.20
2018-03-19T22:04:35.009Z,0.10
2018-03-19T22:09:08.483Z,0.00
2018-03-19T22:13:42.488Z,-0.10
2018-03-19T22:18:16.336Z,-0.10
2018-03-19T22:22:50.604Z,-0.20
2018-03-19T22:27:23.874Z,-0.20
2018-03-19T22:31:57.168Z,-0.20
2018-03-19T22:36:31.231Z,-0.40
2018-03-19T22:41:04.538Z,-0.40
2018-03-19T22:45:37.855Z,-0.50
2018-03-19T22:50:11.236Z,-0.40
2018-03-19T22:54:45.467Z,-0.50
2018-03-19T22:59:20.166Z,-0.60
2018-03-19T23:03:53.620Z,-0.70
2018-03-19T23:08:27.667Z,-0.70
2018-03-19T23:13:01.570Z,-0.80
2018-03-19T23:17:35.952Z,-0.90
2018-03-19T23:22:09.181Z,-0.90
2018-03-19T23:26:42.441Z,-0.90
2018-03-19T23:31:15.855Z,-1.00
2018-03-19T23:35:49.172Z,-1.10
2018-03-19T23:40:22.693Z,-1.10
2018-03-19T23:44:57.521Z,-1.10
2018-03-19T23:49:30.801Z,-1.20
2018-03-19T23:54:04.967Z,-1.30
2018-03-19T23:58:38.273Z,-1.40
